Time;durP1;ratioP1;P1;durP2;ratioP2;P2;SDS_P1;SDS_P2;PMS_P1;PMS_P2;Temp;Humidity;BMP_temperature;BMP_pressure;BME280_temperature;BME280_humidity;BME280_pressure;Samples;Min_cycle;Max_cycle;Signal;HPM_P1;HPM_P2
2024/02/27 00:01:05;;;;;;;;;;;;;;;15.62;46.81;100864.81;4950085;29;1077;-46
2024/02/27 00:03:30;;;;;;;;;;;;;;;16.00;47.83;100866.72;4958784;29;1054;-48
2024/02/27 00:05:56;;;;;;;;;;;;;;;17.77;46.70;100874.59;4958566;29;1021;-47
2024/02/27 00:08:21;;;;;;;;;;;;;;;16.34;48.15;100876.81;4958835;29;1009;-48
2024/02/27 00:10:47;;;;;;;;;;;;;;;15.88;48.10;100875.50;4957959;29;979;-48
2024/02/27 00:13:12;;;;;;;;;;;;;;;17.30;47.21;100875.41;4958801;29;1113;-46
2024/02/27 00:15:39;;;;;;;;;;;;;;;16.23;48.12;100876.72;4958045;28;1977;-46
2024/02/27 00:18:04;;;;;;;;;;;;;;;15.91;47.53;100859.38;4958161;29;1073;-48
2024/02/27 00:20:30;;;;;;;;;;;;;;;15.73;46.63;100866.78;4958306;29;2555;-48
2024/02/27 00:22:55;;;;;;;;;;;;;;;15.58;46.03;100860.69;4958875;29;1014;-50
2024/02/27 00:25:21;;;;;;;;;;;;;;;15.45;45.77;100868.63;4945099;29;1121;-46
2024/02/27 00:27:46;;;;;;;;;;;;;;;16.68;47.38;100867.41;4958702;29;1113;-48
2024/02/27 00:30:12;;;;;;;;;;;;;;;16.36;47.94;100868.72;4953228;29;1095;-47
2024/02/27 00:32:37;;;;;;;;;;;;;;;15.82;47.56;100874.09;4958353;29;1034;-48
2024/02/27 00:35:04;;;;;;;;;;;;;;;15.57;47.25;100873.09;4958253;29;1902;-45
2024/02/27 00:37:29;;;;;;;;;;;;;;;15.51;47.18;100866.41;4957159;29;1022;-45
2024/02/27 00:39:55;;;;;;;;;;;;;;;17.35;47.07;100874.09;4958091;29;1101;-50
2024/02/27 00:42:20;;;;;;;;;;;;;;;16.50;48.20;100873.91;4958168;29;1095;-46
2024/02/27 00:44:46;;;;;;;;;;;;;;;15.98;47.68;100867.75;4958168;29;1061;-49
2024/02/27 00:47:12;;;;;;;;;;;;;;;15.70;47.09;100867.81;4958338;29;1130;-45
2024/02/27 00:49:38;;;;;;;;;;;;;;;15.59;46.73;100873.00;4957922;29;1030;-44
2024/02/27 00:52:05;;;;;;;;;;;;;;;15.94;47.73;100880.38;4957740;29;2662;-46
2024/02/27 00:54:31;;;;;;;;;;;;;;;17.62;46.54;100886.28;4957734;29;1230;-47
2024/02/27 00:56:56;;;;;;;;;;;;;;;16.15;48.30;100890.47;4958083;29;1907;-44
2024/02/27 00:59:22;;;;;;;;;;;;;;;15.77;47.91;100881.50;4956346;29;1064;-45
2024/02/27 01:01:47;;;;;;;;;;;;;;;15.56;47.41;100884.66;4956346;29;1155;-43
2024/02/27 01:04:13;;;;;;;;;;;;;;;15.48;46.37;100876.38;4958166;29;1042;-45
2024/02/27 01:06:38;;;;;;;;;;;;;;;16.56;48.24;100879.75;4957739;29;858;-47
2024/02/27 01:09:04;;;;;;;;;;;;;;;17.06;47.25;100873.56;4958463;29;1149;-47
2024/02/27 01:11:29;;;;;;;;;;;;;;;16.02;47.86;100880.72;4957998;28;1054;-47
2024/02/27 01:13:55;;;;;;;;;;;;;;;15.76;47.40;100874.50;4957915;29;1013;-48
2024/02/27 01:16:22;;;;;;;;;;;;;;;16.08;47.90;100883.91;4957657;29;1902;-48
2024/02/27 01:18:48;;;;;;;;;;;;;;;16.64;47.77;100886.22;4957350;29;1097;-46
2024/02/27 01:21:13;;;;;;;;;;;;;;;15.87;47.99;100877.28;4958087;29;2778;-46
2024/02/27 01:23:39;;;;;;;;;;;;;;;15.66;47.58;100891.03;4957416;29;1081;-49
2024/02/27 01:26:04;;;;;;;;;;;;;;;15.52;46.72;100881.38;4957674;29;1061;-47
2024/02/27 01:28:29;;;;;;;;;;;;;;;15.39;46.01;100885.78;4957911;29;999;-49
2024/02/27 01:30:55;;;;;;;;;;;;;;;17.10;47.38;100891.84;4938613;29;855;-45
2024/02/27 01:33:21;;;;;;;;;;;;;;;16.68;47.42;100889.50;4944791;29;1172;-47
2024/02/27 01:35:47;;;;;;;;;;;;;;;15.86;48.19;100888.88;4940695;28;2215;-45
2024/02/27 01:38:12;;;;;;;;;;;;;;;15.61;47.77;100884.34;4960340;29;1013;-49
2024/02/27 01:40:38;;;;;;;;;;;;;;;15.47;46.88;100888.78;4961715;29;1080;-47
2024/02/27 01:43:03;;;;;;;;;;;;;;;16.98;47.92;100896.22;4952207;29;1192;-47
2024/02/27 01:45:29;;;;;;;;;;;;;;;16.18;48.11;100887.66;4961075;29;1222;-45
2024/02/27 01:47:55;;;;;;;;;;;;;;;15.68;47.74;100893.59;4960420;28;1054;-45
2024/02/27 01:50:22;;;;;;;;;;;;;;;15.52;47.00;100901.72;4949611;29;2506;-47
2024/02/27 01:52:47;;;;;;;;;;;;;;;17.45;46.96;100903.50;4960760;29;1034;-44
2024/02/27 01:55:13;;;;;;;;;;;;;;;16.48;47.75;100897.06;4940852;29;1983;-46
2024/02/27 01:57:40;;;;;;;;;;;;;;;15.87;48.17;100903.81;4959898;29;1148;-46
2024/02/27 02:00:09;;;;;;;;;;;;;;;15.73;47.30;100899.44;4945516;29;1082;-48
2024/02/27 02:02:37;;;;;;;;;;;;;;;16.83;48.12;100903.47;4943893;29;900;-48
2024/02/27 02:05:04;;;;;;;;;;;;;;;16.35;47.99;100902.38;4943866;29;1181;-46
2024/02/27 02:07:30;;;;;;;;;;;;;;;15.81;48.00;100906.88;4949983;29;1100;-47
2024/02/27 02:09:55;;;;;;;;;;;;;;;15.55;47.40;100897.06;4943681;29;1034;-47
2024/02/27 02:12:21;;;;;;;;;;;;;;;15.55;46.56;100906.81;4948009;29;1122;-48
2024/02/27 02:14:48;;;;;;;;;;;;;;;16.16;47.44;100911.59;4943164;29;1053;-44
2024/02/27 02:17:13;;;;;;;;;;;;;;;17.05;46.88;100909.06;4960171;29;1914;-47
2024/02/27 02:19:39;;;;;;;;;;;;;;;15.94;48.24;100898.09;4959914;29;902;-44
2024/02/27 02:22:04;;;;;;;;;;;;;;;15.69;47.27;100907.69;4960286;29;2789;-44
2024/02/27 02:24:30;;;;;;;;;;;;;;;15.51;46.49;100903.53;4960552;29;1026;-47
2024/02/27 02:26:56;;;;;;;;;;;;;;;15.42;46.43;100901.47;4943204;29;1177;-46
2024/02/27 02:29:21;;;;;;;;;;;;;;;17.01;47.29;100903.13;4950539;29;1033;-47
2024/02/27 02:31:47;;;;;;;;;;;;;;;16.20;48.12;100906.94;4953270;29;1093;-47
2024/02/27 02:34:12;;;;;;;;;;;;;;;15.72;47.37;100905.69;4949221;29;1010;-45
2024/02/27 02:36:38;;;;;;;;;;;;;;;16.02;48.30;100911.72;4960332;29;1984;-47
2024/02/27 02:39:04;;;;;;;;;;;;;;;16.53;47.68;100916.19;4960005;29;1144;-45
2024/02/27 02:41:29;;;;;;;;;;;;;;;15.87;47.53;100922.38;4959450;29;1271;-46
2024/02/27 02:43:55;;;;;;;;;;;;;;;15.66;47.20;100933.47;4954984;29;847;-46
2024/02/27 02:46:20;;;;;;;;;;;;;;;15.42;46.82;100934.16;4959935;29;1054;-44
2024/02/27 02:48:46;;;;;;;;;;;;;;;17.21;46.64;100938.94;4959299;28;1069;-46
2024/02/27 02:51:11;;;;;;;;;;;;;;;16.04;47.87;100936.34;4959651;29;2660;-44
2024/02/27 02:53:37;;;;;;;;;;;;;;;15.64;47.63;100951.31;4951869;29;1121;-45
2024/02/27 02:56:02;;;;;;;;;;;;;;;15.57;47.16;100944.69;4954514;29;1914;-49
2024/02/27 02:58:28;;;;;;;;;;;;;;;17.47;46.31;100951.25;4959806;29;1127;-46
2024/02/27 03:00:53;;;;;;;;;;;;;;;16.10;47.65;100933.28;4953749;29;1541;-47
2024/02/27 03:03:19;;;;;;;;;;;;;;;15.77;47.53;100939.88;4959095;29;999;-47
2024/02/27 03:05:44;;;;;;;;;;;;;;;15.64;47.56;100935.38;4957882;28;1273;-47
2024/02/27 03:08:10;;;;;;;;;;;;;;;17.58;46.31;100939.84;4953897;29;2255;-45
2024/02/27 03:10:35;;;;;;;;;;;;;;;16.47;47.59;100945.81;4960027;29;1292;-48
2024/02/27 03:13:01;;;;;;;;;;;;;;;15.88;47.47;100947.13;4959572;29;1136;-46
2024/02/27 03:15:26;;;;;;;;;;;;;;;15.69;47.01;100937.72;4959208;29;1981;-44
2024/02/27 03:17:52;;;;;;;;;;;;;;;15.59;46.53;100940.13;4959685;29;1065;-47
2024/02/27 03:20:18;;;;;;;;;;;;;;;15.47;45.99;100944.44;4947993;29;1046;-49
2024/02/27 03:22:43;;;;;;;;;;;;;;;15.28;46.09;100931.53;4941964;29;1113;-43
2024/02/27 03:25:10;;;;;;;;;;;;;;;16.05;46.81;100942.50;4959238;29;1157;-50
2024/02/27 03:27:35;;;;;;;;;;;;;;;17.31;46.44;100944.41;4959322;29;1045;-49
2024/02/27 03:30:01;;;;;;;;;;;;;;;15.94;48.33;100940.53;4957033;29;1228;-44
2024/02/27 03:32:27;;;;;;;;;;;;;;;15.57;47.83;100949.13;4953579;29;902;-46
2024/02/27 03:34:52;;;;;;;;;;;;;;;15.36;47.18;100950.44;4958510;29;1053;-47
2024/02/27 03:37:17;;;;;;;;;;;;;;;15.26;46.65;100950.19;4959155;29;1911;-45
2024/02/27 03:39:43;;;;;;;;;;;;;;;16.72;47.51;100956.53;4959223;29;1031;-47
2024/02/27 03:42:09;;;;;;;;;;;;;;;16.18;47.94;100954.00;4959122;29;1053;-46
2024/02/27 03:44:35;;;;;;;;;;;;;;;15.69;47.80;100953.66;4958525;29;867;-47
2024/02/27 03:47:00;;;;;;;;;;;;;;;17.57;46.52;100964.72;4958861;29;1089;-46
2024/02/27 03:49:26;;;;;;;;;;;;;;;16.12;48.17;100949.94;4950950;29;1141;-44
2024/02/27 03:51:52;;;;;;;;;;;;;;;15.77;47.80;100954.00;4952887;29;1086;-45
2024/02/27 03:54:17;;;;;;;;;;;;;;;16.86;47.49;100951.09;4947345;29;1252;-46
2024/02/27 03:56:43;;;;;;;;;;;;;;;15.92;48.25;100948.59;4958460;29;1911;-45
2024/02/27 03:59:09;;;;;;;;;;;;;;;15.72;47.24;100963.19;4958505;28;1093;-44
2024/02/27 04:01:34;;;;;;;;;;;;;;;17.06;47.08;100953.28;4958183;29;1077;-48
2024/02/27 04:04:00;;;;;;;;;;;;;;;16.02;47.72;100952.38;4957348;29;1249;-48
2024/02/27 04:06:26;;;;;;;;;;;;;;;15.71;47.31;100945.59;4957727;29;1132;-48
2024/02/27 04:08:51;;;;;;;;;;;;;;;15.53;46.80;100951.16;4957781;29;883;-47
2024/02/27 04:11:17;;;;;;;;;;;;;;;15.34;46.53;100949.69;4958544;29;1141;-44
2024/02/27 04:13:42;;;;;;;;;;;;;;;16.85;47.52;100948.56;4958754;29;1049;-45
2024/02/27 04:16:08;;;;;;;;;;;;;;;16.17;47.69;100946.97;4958200;29;1976;-45
2024/02/27 04:18:33;;;;;;;;;;;;;;;15.70;47.25;100946.53;4958255;29;1128;-43
2024/02/27 04:20:59;;;;;;;;;;;;;;;15.46;46.99;100952.50;4956513;29;1466;-45
2024/02/27 04:23:24;;;;;;;;;;;;;;;16.82;47.44;100962.03;4958193;29;1097;-43
2024/02/27 04:25:50;;;;;;;;;;;;;;;16.04;47.91;100968.19;4958238;28;1030;-47
2024/02/27 04:28:16;;;;;;;;;;;;;;;15.69;47.63;100958.94;4958038;29;1018;-44
2024/02/27 04:30:41;;;;;;;;;;;;;;;15.51;46.51;100959.22;4958418;29;1210;-43
2024/02/27 04:33:07;;;;;;;;;;;;;;;15.28;46.38;100963.34;4947113;29;1190;-45
2024/02/27 04:35:32;;;;;;;;;;;;;;;15.34;46.56;100962.09;4958070;29;1968;-44
2024/02/27 04:37:58;;;;;;;;;;;;;;;17.19;46.46;100964.75;4958215;29;1104;-46
2024/02/27 04:40:23;;;;;;;;;;;;;;;16.14;47.70;100965.75;4958225;29;1184;-47
2024/02/27 04:42:48;;;;;;;;;;;;;;;15.65;47.63;100962.75;4957779;29;1046;-48
2024/02/27 04:45:14;;;;;;;;;;;;;;;16.69;47.56;100972.69;4952651;29;980;-48
2024/02/27 04:47:39;;;;;;;;;;;;;;;16.33;47.55;100970.66;4957553;29;1126;-47
2024/02/27 04:50:05;;;;;;;;;;;;;;;15.83;47.56;100968.63;4957572;29;1248;-50
2024/02/27 04:52:31;;;;;;;;;;;;;;;16.22;48.50;100967.88;4957591;29;1025;-43
2024/02/27 04:54:56;;;;;;;;;;;;;;;16.87;46.91;100983.81;4958138;29;1249;-46
2024/02/27 04:57:22;;;;;;;;;;;;;;;15.95;48.11;100974.09;4947908;29;1918;-44
2024/02/27 04:59:47;;;;;;;;;;;;;;;15.65;47.69;100981.31;4940048;29;1134;-45
2024/02/27 05:02:13;;;;;;;;;;;;;;;16.89;47.74;100996.06;4952072;29;1891;-47
2024/02/27 05:04:39;;;;;;;;;;;;;;;16.62;47.21;100980.22;4956074;29;995;-47
2024/02/27 05:07:04;;;;;;;;;;;;;;;15.92;47.73;100985.75;4937192;29;1910;-46
2024/02/27 05:09:30;;;;;;;;;;;;;;;15.69;46.88;100990.78;4950112;29;1845;-43
2024/02/27 05:11:55;;;;;;;;;;;;;;;15.56;46.42;100993.38;4957554;28;1667;-46
2024/02/27 05:14:21;;;;;;;;;;;;;;;17.05;44.29;100999.44;4959733;29;1817;-44
2024/02/27 05:16:46;;;;;;;;;;;;;;;16.77;45.00;101004.88;4960307;29;2018;-45
2024/02/27 05:19:12;;;;;;;;;;;;;;;16.53;45.50;101003.81;4960845;29;1121;-40
2024/02/27 05:21:37;;;;;;;;;;;;;;;16.32;46.01;101008.78;4957186;29;886;-44
2024/02/27 05:24:03;;;;;;;;;;;;;;;16.19;46.50;101015.88;4961072;29;1168;-44
2024/02/27 05:26:28;;;;;;;;;;;;;;;15.96;47.26;101015.59;4961060;29;1078;-43
2024/02/27 05:28:54;;;;;;;;;;;;;;;15.83;47.27;101019.03;4961121;29;1173;-42
2024/02/27 05:31:21;;;;;;;;;;;;;;;15.73;47.61;101024.09;4960932;29;1133;-43
2024/02/27 05:33:47;;;;;;;;;;;;;;;15.69;47.67;101021.75;4947372;29;1100;-42
2024/02/27 05:36:13;;;;;;;;;;;;;;;15.53;47.85;101025.41;4952813;29;1911;-42
2024/02/27 05:38:38;;;;;;;;;;;;;;;15.48;48.02;101032.78;4960868;29;1022;-45
2024/02/27 05:41:04;;;;;;;;;;;;;;;15.33;48.39;101035.44;4960286;29;1149;-42
2024/02/27 05:43:30;;;;;;;;;;;;;;;15.29;48.46;101034.81;4961141;29;1339;-42
2024/02/27 05:45:55;;;;;;;;;;;;;;;15.82;47.70;101043.00;4955615;29;2421;-42
2024/02/27 05:48:21;;;;;;;;;;;;;;;17.16;44.59;101039.44;4960248;29;1418;-43
2024/02/27 05:50:46;;;;;;;;;;;;;;;16.69;45.37;101037.28;4959739;29;1134;-42
2024/02/27 05:53:12;;;;;;;;;;;;;;;16.13;46.64;101041.03;4954583;29;1410;-44
2024/02/27 05:55:37;;;;;;;;;;;;;;;15.83;47.31;101040.25;4960451;29;1895;-42
2024/02/27 05:58:03;;;;;;;;;;;;;;;15.59;48.20;101040.91;4959902;29;1188;-45
2024/02/27 06:00:28;;;;;;;;;;;;;;;15.41;48.77;101050.88;4960883;29;1275;-42
2024/02/27 06:02:54;;;;;;;;;;;;;;;15.30;48.77;101049.75;4960863;29;1296;-45
2024/02/27 06:05:19;;;;;;;;;;;;;;;16.44;46.64;101057.56;4960773;29;1132;-43
2024/02/27 06:07:45;;;;;;;;;;;;;;;17.34;44.12;101058.53;4960499;29;1437;-43
2024/02/27 06:10:10;;;;;;;;;;;;;;;16.39;46.01;101062.31;4960032;29;1180;-45
2024/02/27 06:12:36;;;;;;;;;;;;;;;15.91;47.36;101071.59;4960557;29;1377;-45
2024/02/27 06:15:03;;;;;;;;;;;;;;;15.65;48.17;101066.16;4960327;29;1346;-42
2024/02/27 06:17:28;;;;;;;;;;;;;;;15.54;48.55;101074.81;4960347;29;1910;-45
2024/02/27 06:19:59;;;;;;;;;;;;;;;15.40;48.72;101073.88;4960067;29;1290;-44
2024/02/27 06:22:25;;;;;;;;;;;;;;;16.19;47.21;101077.78;4957915;28;895;-44
2024/02/27 06:24:50;;;;;;;;;;;;;;;17.37;44.37;101081.38;4959454;29;1406;-45
2024/02/27 06:27:16;;;;;;;;;;;;;;;16.42;46.25;101086.03;4960584;29;1145;-46
2024/02/27 06:29:41;;;;;;;;;;;;;;;15.91;47.87;101079.56;4942680;29;1196;-45
2024/02/27 06:32:10;;;;;;;;;;;;;;;15.71;48.25;101081.72;4960384;29;1369;-45
2024/02/27 06:34:35;;;;;;;;;;;;;;;15.57;48.38;101079.94;4960038;29;1258;-42
2024/02/27 06:37:01;;;;;;;;;;;;;;;15.40;48.81;101083.63;4960025;29;1910;-47
2024/02/27 06:39:26;;;;;;;;;;;;;;;15.26;49.09;101089.81;4959569;29;1461;-43
2024/02/27 06:41:52;;;;;;;;;;;;;;;16.67;46.36;101096.78;4960448;29;1354;-45
2024/02/27 06:44:18;;;;;;;;;;;;;;;17.34;44.39;101093.09;4942832;29;1212;-45
2024/02/27 06:46:43;;;;;;;;;;;;;;;16.37;46.39;101086.34;4960168;29;938;-46
2024/02/27 06:49:09;;;;;;;;;;;;;;;15.94;47.71;101095.28;4959910;29;1378;-44
2024/02/27 06:51:34;;;;;;;;;;;;;;;15.73;48.21;101086.91;4959383;29;1308;-47
2024/02/27 06:54:00;;;;;;;;;;;;;;;15.59;48.76;101095.75;4957886;29;1413;-45
2024/02/27 06:56:25;;;;;;;;;;;;;;;15.41;49.04;101096.78;4958822;29;1907;-42
2024/02/27 06:58:52;;;;;;;;;;;;;;;15.28;49.25;101102.00;4956148;29;1136;-44
2024/02/27 07:01:18;;;;;;;;;;;;;;;16.61;46.55;101106.91;4959625;29;1298;-46
2024/02/27 07:03:44;;;;;;;;;;;;;;;17.07;45.22;101109.13;4959596;29;1247;-46
2024/02/27 07:06:09;;;;;;;;;;;;;;;16.22;46.93;101121.84;4959799;29;1200;-44
2024/02/27 07:08:35;;;;;;;;;;;;;;;15.81;48.01;101121.75;4957036;29;1152;-44
2024/02/27 07:11:00;;;;;;;;;;;;;;;15.58;48.56;101124.03;4951785;29;1165;-43
2024/02/27 07:13:26;;;;;;;;;;;;;;;15.29;49.37;101121.41;4959354;29;1185;-46
2024/02/27 07:15:51;;;;;;;;;;;;;;;15.30;49.35;101121.31;4947319;29;1927;-45
2024/02/27 07:18:17;;;;;;;;;;;;;;;16.76;46.21;101117.44;4957972;29;1322;-42
2024/02/27 07:20:43;;;;;;;;;;;;;;;17.29;44.67;101116.50;4958792;29;1441;-44
2024/02/27 07:23:08;;;;;;;;;;;;;;;16.32;47.00;101127.41;4958811;29;1432;-42
2024/02/27 07:25:34;;;;;;;;;;;;;;;15.94;47.94;101115.66;4958461;29;1354;-43
2024/02/27 07:27:59;;;;;;;;;;;;;;;15.65;48.71;101113.91;4958909;29;1141;-46
2024/02/27 07:30:26;;;;;;;;;;;;;;;15.49;48.99;101127.28;4958489;29;1406;-45
2024/02/27 07:32:52;;;;;;;;;;;;;;;15.96;48.44;101127.88;4957825;29;1235;-45
2024/02/27 07:35:17;;;;;;;;;;;;;;;17.33;44.90;101133.09;4958122;28;1899;-46
2024/02/27 07:37:43;;;;;;;;;;;;;;;16.49;46.54;101129.81;4958419;29;1073;-46
2024/02/27 07:40:09;;;;;;;;;;;;;;;16.01;47.43;101133.78;4958815;29;1382;-42
2024/02/27 07:42:35;;;;;;;;;;;;;;;15.73;48.36;101132.84;4957864;29;1501;-43
2024/02/27 07:45:00;;;;;;;;;;;;;;;15.53;49.09;101148.19;4955966;29;1268;-42
2024/02/27 07:47:26;;;;;;;;;;;;;;;15.39;49.38;101142.91;4958290;29;1311;-44
2024/02/27 07:49:51;;;;;;;;;;;;;;;15.70;48.70;101143.66;4958300;29;1260;-48
2024/02/27 07:52:17;;;;;;;;;;;;;;;17.13;45.30;101149.47;4957953;29;1311;-46
2024/02/27 07:54:42;;;;;;;;;;;;;;;16.85;45.80;101143.34;4958105;29;1033;-43
2024/02/27 07:57:08;;;;;;;;;;;;;;;16.11;47.62;101147.31;4955002;29;1973;-42
2024/02/27 07:59:34;;;;;;;;;;;;;;;15.76;48.23;101147.72;4953234;29;1125;-48
2024/02/27 08:01:59;;;;;;;;;;;;;;;15.62;48.63;101156.53;4958003;29;1280;-47
2024/02/27 08:04:25;;;;;;;;;;;;;;;15.45;48.95;101155.78;4958151;29;1121;-46
2024/02/27 08:06:50;;;;;;;;;;;;;;;16.23;47.92;101147.47;4958148;29;1114;-46
2024/02/27 08:09:16;;;;;;;;;;;;;;;17.31;44.85;101153.63;4954568;29;1130;-46
2024/02/27 08:11:41;;;;;;;;;;;;;;;16.38;46.92;101151.75;4955892;29;1122;-43
2024/02/27 08:14:07;;;;;;;;;;;;;;;15.97;47.84;101148.16;4957525;29;1146;-46
2024/02/27 08:16:32;;;;;;;;;;;;;;;15.66;48.83;101155.41;4957819;29;1991;-46
2024/02/27 08:18:59;;;;;;;;;;;;;;;15.47;49.07;101158.34;4957689;29;1091;-43
2024/02/27 08:21:25;;;;;;;;;;;;;;;15.37;49.68;101158.06;4953844;29;1110;-45
2024/02/27 08:23:50;;;;;;;;;;;;;;;15.24;50.06;101161.47;4954383;29;1518;-47
2024/02/27 08:26:16;;;;;;;;;;;;;;;16.68;46.60;101155.16;4957652;29;1342;-44
2024/02/27 08:28:41;;;;;;;;;;;;;;;17.29;44.93;101156.41;4958323;29;1212;-45
2024/02/27 08:31:07;;;;;;;;;;;;;;;16.35;47.19;101159.09;4957993;29;1183;-49
2024/02/27 08:33:32;;;;;;;;;;;;;;;15.91;48.35;101151.22;4957336;29;1432;-43
2024/02/27 08:35:58;;;;;;;;;;;;;;;15.71;48.87;101152.47;4957853;29;1899;-43
2024/02/27 08:38:23;;;;;;;;;;;;;;;15.52;49.09;101156.25;4957755;29;1418;-44
2024/02/27 08:40:49;;;;;;;;;;;;;;;15.37;49.47;101158.91;4958010;29;1461;-46
2024/02/27 08:43:15;;;;;;;;;;;;;;;15.54;49.61;101164.97;4957593;29;1124;-44
2024/02/27 08:45:43;;;;;;;;;;;;;;;17.00;46.08;101157.41;4956911;28;1181;-45
2024/02/27 08:48:09;;;;;;;;;;;;;;;16.35;46.68;101164.41;4940352;29;1086;-46
2024/02/27 08:50:34;;;;;;;;;;;;;;;15.86;48.50;101164.78;4958076;29;1120;-46
2024/02/27 08:53:00;;;;;;;;;;;;;;;15.62;49.19;101175.09;4957644;29;1077;-45
2024/02/27 08:55:26;;;;;;;;;;;;;;;15.45;49.45;101171.69;4957272;29;1986;-44
2024/02/27 08:57:51;;;;;;;;;;;;;;;15.36;49.75;101178.44;4954885;29;1104;-44
2024/02/27 09:00:17;;;;;;;;;;;;;;;16.91;46.09;101179.31;4956926;29;1398;-48
2024/02/27 09:02:43;;;;;;;;;;;;;;;17.17;45.37;101181.16;4956764;28;1117;-46
2024/02/27 09:05:08;;;;;;;;;;;;;;;16.22;47.59;101173.16;4956762;29;1110;-47
2024/02/27 09:07:37;;;;;;;;;;;;;;;15.90;48.36;101173.38;4956984;29;1057;-46
2024/02/27 09:10:04;;;;;;;;;;;;;;;15.61;49.28;101176.91;4956222;29;1228;-44
2024/02/27 09:12:30;;;;;;;;;;;;;;;15.53;49.39;101176.53;4956818;29;1363;-43
2024/02/27 09:14:55;;;;;;;;;;;;;;;15.50;49.37;101180.22;4957143;29;1102;-47
2024/02/27 09:17:21;;;;;;;;;;;;;;;16.98;46.25;101177.09;4957148;29;1986;-47
2024/02/27 09:19:47;;;;;;;;;;;;;;;16.87;45.88;101178.66;4957686;29;1114;-44
2024/02/27 09:22:12;;;;;;;;;;;;;;;16.12;47.79;101182.63;4950367;29;1201;-43
2024/02/27 09:24:38;;;;;;;;;;;;;;;15.82;48.54;101181.81;4935172;29;1289;-47
2024/02/27 09:27:03;;;;;;;;;;;;;;;15.62;48.94;101183.06;4954819;29;1204;-47
2024/02/27 09:29:29;;;;;;;;;;;;;;;15.48;49.44;101179.44;4956478;29;1050;-46
2024/02/27 09:31:54;;;;;;;;;;;;;;;15.29;49.68;101190.34;4956234;29;1098;-49
2024/02/27 09:34:20;;;;;;;;;;;;;;;16.73;46.87;101184.06;4948697;29;1272;-48
2024/02/27 09:36:46;;;;;;;;;;;;;;;17.29;45.24;101192.75;4956499;29;1993;-47
2024/02/27 09:39:11;;;;;;;;;;;;;;;16.28;47.23;101193.97;4956485;29;1111;-48
2024/02/27 09:41:46;;;;;;;;;;;;;;;15.87;48.34;101198.31;4957688;29;1315;-47
2024/02/27 09:44:11;;;;;;;;;;;;;;;15.66;49.07;101190.72;4957235;29;1311;-44
2024/02/27 09:46:38;;;;;;;;;;;;;;;15.47;49.50;101188.38;4932164;29;1276;-48
2024/02/27 09:49:03;;;;;;;;;;;;;;;15.76;48.95;101193.69;4938846;29;1309;-47
2024/02/27 09:51:29;;;;;;;;;;;;;;;17.18;45.85;101193.50;4924623;29;1289;-45
2024/02/27 09:53:57;;;;;;;;;;;;;;;16.60;46.74;101197.31;4957192;29;1311;-45
2024/02/27 09:56:24;;;;;;;;;;;;;;;15.97;48.52;101187.97;4957219;29;1981;-47
2024/02/27 09:58:50;;;;;;;;;;;;;;;15.72;48.75;101191.28;4942288;29;1360;-45
2024/02/27 10:01:15;;;;;;;;;;;;;;;15.57;49.47;101193.94;4960791;29;1307;-45
2024/02/27 10:03:45;;;;;;;;;;;;;;;15.37;49.96;101193.38;4956425;29;1055;-45
2024/02/27 10:06:11;;;;;;;;;;;;;;;15.27;50.02;101187.78;4960059;29;1097;-46
2024/02/27 10:08:36;;;;;;;;;;;;;;;16.59;47.18;101187.63;4943922;29;1085;-49
2024/02/27 10:11:02;;;;;;;;;;;;;;;17.57;44.71;101183.72;4950903;29;1138;-47
2024/02/27 10:13:27;;;;;;;;;;;;;;;16.57;46.74;101184.19;4942783;29;1158;-46
2024/02/27 10:15:53;;;;;;;;;;;;;;;16.06;47.97;101180.38;4960359;29;2026;-48
2024/02/27 10:18:18;;;;;;;;;;;;;;;15.74;49.01;101182.31;4960398;29;994;-43
2024/02/27 10:20:44;;;;;;;;;;;;;;;15.67;48.84;101176.53;4960517;29;1041;-43
2024/02/27 10:23:09;;;;;;;;;;;;;;;15.54;49.51;101176.44;4959574;29;1053;-45
2024/02/27 10:25:35;;;;;;;;;;;;;;;17.05;46.31;101174.88;4960116;29;1054;-45
2024/02/27 10:28:01;;;;;;;;;;;;;;;16.81;46.53;101181.72;4959834;29;1038;-44
2024/02/27 10:30:27;;;;;;;;;;;;;;;16.07;47.95;101180.28;4960673;29;1050;-44
2024/02/27 10:32:52;;;;;;;;;;;;;;;15.82;48.54;101183.59;4960355;29;1039;-47
2024/02/27 10:35:19;;;;;;;;;;;;;;;15.62;49.31;101183.06;4950034;29;1023;-44
2024/02/27 10:37:45;;;;;;;;;;;;;;;15.40;49.53;101185.22;4959458;29;1910;-45
2024/02/27 10:40:12;;;;;;;;;;;;;;;15.27;50.29;101182.47;4960444;29;1113;-47
2024/02/27 10:42:39;;;;;;;;;;;;;;;16.74;47.09;101180.44;4959635;29;1197;-44
2024/02/27 10:45:05;;;;;;;;;;;;;;;17.34;45.24;101178.19;4943401;29;1042;-42
2024/02/27 10:47:30;;;;;;;;;;;;;;;16.41;47.42;101174.59;4931513;29;1228;-45
2024/02/27 10:49:56;;;;;;;;;;;;;;;15.96;48.62;101180.97;4959801;29;1276;-45
2024/02/27 10:52:24;;;;;;;;;;;;;;;15.69;49.22;101180.88;4960033;29;1427;-45
2024/02/27 10:54:50;;;;;;;;;;;;;;;15.48;49.43;101170.66;4956874;29;1323;-46
2024/02/27 10:57:16;;;;;;;;;;;;;;;15.80;49.27;101175.75;4942115;29;1911;-45
2024/02/27 10:59:42;;;;;;;;;;;;;;;17.28;45.64;101186.59;4958149;29;1110;-44
2024/02/27 11:02:11;;;;;;;;;;;;;;;16.73;46.30;101184.88;4958387;29;1136;-46
2024/02/27 11:04:37;;;;;;;;;;;;;;;16.05;47.86;101176.88;4958291;29;1094;-45
2024/02/27 11:07:02;;;;;;;;;;;;;;;15.77;48.86;101175.94;4942601;29;1555;-43
2024/02/27 11:09:28;;;;;;;;;;;;;;;15.59;49.29;101178.81;4942004;29;1070;-45
2024/02/27 11:11:58;;;;;;;;;;;;;;;15.40;49.63;101174.63;4952263;29;1201;-47
2024/02/27 11:14:24;;;;;;;;;;;;;;;15.74;49.23;101174.34;4958268;29;1132;-46
2024/02/27 11:16:50;;;;;;;;;;;;;;;17.14;45.70;101179.56;4959608;29;1914;-42
2024/02/27 11:19:24;;;;;;;;;;;;;;;16.75;46.34;101168.84;4959393;29;1397;-44
2024/02/27 11:21:50;;;;;;;;;;;;;;;16.05;48.05;101170.75;4959790;29;1200;-48
2024/02/27 11:24:15;;;;;;;;;;;;;;;15.75;48.54;101173.38;4932720;29;1066;-44
2024/02/27 11:26:41;;;;;;;;;;;;;;;15.60;49.12;101166.41;4959709;29;1165;-46
2024/02/27 11:29:06;;;;;;;;;;;;;;;15.43;49.28;101166.47;4941050;29;1515;-46
2024/02/27 11:31:33;;;;;;;;;;;;;;;15.43;49.95;101171.78;4940991;29;1026;-45
2024/02/27 11:33:59;;;;;;;;;;;;;;;17.01;45.94;101175.06;4957878;29;1006;-44
2024/02/27 11:36:25;;;;;;;;;;;;;;;17.26;45.12;101175.22;4948154;29;1907;-46
2024/02/27 11:38:51;;;;;;;;;;;;;;;16.34;47.39;101178.59;4958549;29;1423;-45
2024/02/27 11:41:17;;;;;;;;;;;;;;;15.96;48.09;101169.47;4958630;29;1308;-46
2024/02/27 11:43:46;;;;;;;;;;;;;;;15.67;48.82;101167.72;4958821;29;1057;-46
2024/02/27 11:46:26;;;;;;;;;;;;;;;15.53;49.37;101177.38;4946342;29;1011;-46
2024/02/27 11:48:52;;;;;;;;;;;;;;;15.40;49.59;101168.47;4958406;29;906;-46
2024/02/27 11:51:18;;;;;;;;;;;;;;;15.26;49.56;101169.31;4950403;29;1173;-46
2024/02/27 11:53:44;;;;;;;;;;;;;;;16.39;47.44;101161.44;4954133;29;1180;-43
2024/02/27 11:56:10;;;;;;;;;;;;;;;17.44;44.74;101159.78;4958052;29;1915;-43
2024/02/27 11:58:35;;;;;;;;;;;;;;;16.52;46.92;101163.25;4941156;29;1034;-44
2024/02/27 12:01:01;;;;;;;;;;;;;;;15.96;48.27;101161.53;4947716;29;1416;-45
2024/02/27 12:03:27;;;;;;;;;;;;;;;15.71;48.94;101149.81;4958536;29;1134;-45
2024/02/27 12:05:59;;;;;;;;;;;;;;;15.57;48.99;101158.63;4958138;29;1058;-44
2024/02/27 12:08:25;;;;;;;;;;;;;;;15.39;49.26;101164.13;4958522;29;1061;-47
2024/02/27 12:10:50;;;;;;;;;;;;;;;16.77;46.40;101169.59;4957432;29;1390;-46
2024/02/27 12:13:16;;;;;;;;;;;;;;;16.87;45.86;101160.06;4958381;29;1177;-45
2024/02/27 12:15:41;;;;;;;;;;;;;;;16.16;47.72;101165.59;4958201;29;1982;-43
2024/02/27 12:18:07;;;;;;;;;;;;;;;15.88;48.21;101173.47;4957041;29;1169;-43
2024/02/27 12:20:32;;;;;;;;;;;;;;;15.61;49.09;101170.75;4957724;28;1153;-43
2024/02/27 12:22:58;;;;;;;;;;;;;;;15.42;49.40;101166.59;4957616;29;1097;-45
2024/02/27 12:25:23;;;;;;;;;;;;;;;16.08;48.08;101173.19;4958633;29;1119;-44
2024/02/27 12:27:52;;;;;;;;;;;;;;;17.34;45.21;101170.22;4957929;29;1078;-45
2024/02/27 12:30:20;;;;;;;;;;;;;;;16.53;46.84;101168.47;4958241;29;1225;-43
2024/02/27 12:32:45;;;;;;;;;;;;;;;16.02;47.87;101163.81;4957922;29;1217;-49
2024/02/27 12:35:11;;;;;;;;;;;;;;;15.81;48.84;101158.03;4955756;29;1116;-45
2024/02/27 12:37:38;;;;;;;;;;;;;;;15.60;49.17;101167.25;4944449;29;1899;-46
2024/02/27 12:40:05;;;;;;;;;;;;;;;15.43;49.66;101155.88;4957406;29;1017;-44